Aviation Digital Data Service (ADDS)

Output produced by TAFs form (0748 UTC 25 March 2017)
found at http://www.aviationweather.gov/adds/tafs/
 
METAR text: RJCW 250700Z 30009KT 9999 FEW025 02/M03 Q1018
Conditions at: RJCW (WAKKANAI AIRPORT, JP) observed 0700 UTC 25 March 2017
Temperature: 2.0°C (36°F)
Dewpoint: -3.0°C (27°F) [RH = 69%]
Pressure (altimeter): 30.06 inches Hg (1018.0 mb)
Winds: from the WNW (300 degrees) at 10 MPH (9 knots; 4.7 m/s)
Visibility: 6 or more miles (10+ km)
Ceiling: at least 12,000 feet AGL
Clouds: few clouds at 2500 feet AGL
Weather: no significant weather observed at this time